Fosterville, New York
Current Conditions -  °F | °C
As of 11:54 AM on Friday 24 Oct 2014 (Local Time) from KSYR Reporting Station
Scattered Clouds Scattered Clouds  
Wind Chill: 59°   Ceiling: Unl
Heat Index: 59°   Visibility: 10mi
Dew Point: 43°   Wind: 15mph
Humidity: 55%   Direction: 300°WNW
Pressure: 29.92"   Gusts: NA
Location:  42.9235°N, 76.5525°W
Report Text: KSYR 241554Z 30013KT 10SM FEW035 SCT070 SCT150 15/06 A2992 RMK AO2 SLP130 T01500061
Loading
Personal Weather Stations






























Interactive Weather Map
Tropical Storm Tracking
New forecast layout! Learn more

10-Day Weather Forecast

Advertisements
Track Severe Weather on mobile